createdAt,value
2022-12-12T00:00:54.074Z,11.49
2022-12-12T00:03:21.149Z,11.46
2022-12-12T00:05:48.405Z,11.48
2022-12-12T00:08:15.276Z,11.48
2022-12-12T00:10:42.027Z,11.51
2022-12-12T00:13:08.727Z,11.43
2022-12-12T00:15:35.581Z,11.46
2022-12-12T00:18:02.299Z,11.44
2022-12-12T00:20:29.080Z,11.42
2022-12-12T00:22:56.044Z,11.38
2022-12-12T00:25:22.903Z,11.36
2022-12-12T00:27:49.654Z,11.42
2022-12-12T00:30:16.499Z,11.35
2022-12-12T00:32:43.196Z,11.30
2022-12-12T00:35:10.323Z,11.20
2022-12-12T00:37:37.316Z,11.13
2022-12-12T00:40:06.310Z,11.19
2022-12-12T00:42:33.133Z,11.27
2022-12-12T00:45:00.041Z,11.29
2022-12-12T00:47:26.756Z,11.27
2022-12-12T00:49:53.507Z,11.39
2022-12-12T00:52:20.438Z,11.46
2022-12-12T00:54:47.258Z,11.55
2022-12-12T00:57:13.998Z,11.74
2022-12-12T00:59:40.835Z,11.80
2022-12-12T01:02:07.700Z,11.89
2022-12-12T01:04:34.512Z,11.92
2022-12-12T01:07:01.593Z,11.98
2022-12-12T01:09:28.275Z,12.03
2022-12-12T01:11:55.012Z,12.01
2022-12-12T01:14:22.071Z,11.98
2022-12-12T01:16:48.823Z,12.09
2022-12-12T01:19:15.881Z,12.15
2022-12-12T01:21:42.962Z,12.04
2022-12-12T01:24:09.685Z,12.17
2022-12-12T01:26:37.724Z,12.14
2022-12-12T01:29:04.624Z,12.25
2022-12-12T01:31:31.463Z,12.18
2022-12-12T01:33:58.202Z,12.36
2022-12-12T01:36:25.118Z,12.25
2022-12-12T01:38:54.403Z,12.16
2022-12-12T01:41:21.483Z,12.16
2022-12-12T01:43:48.447Z,12.13
2022-12-12T01:46:39.184Z,12.18
2022-12-12T01:49:16.332Z,12.21
2022-12-12T01:51:44.756Z,12.26
2022-12-12T01:54:19.301Z,12.40
2022-12-12T01:56:47.880Z,12.46
2022-12-12T01:59:17.740Z,12.53
2022-12-12T02:01:45.090Z,12.51
2022-12-12T02:04:13.170Z,12.66
2022-12-12T02:06:41.107Z,12.75
2022-12-12T02:09:12.516Z,12.87
2022-12-12T02:11:48.784Z,12.97
2022-12-12T02:14:20.786Z,13.03
2022-12-12T02:17:08.934Z,13.13
2022-12-12T02:20:04.537Z,13.14
2022-12-12T02:22:34.214Z,13.30
2022-12-12T02:25:39.769Z,13.32
2022-12-12T02:28:27.962Z,13.44
2022-12-12T02:31:26.981Z,13.61
2022-12-12T02:34:24.335Z,13.80
2022-12-12T02:37:01.545Z,14.02
2022-12-12T02:39:45.218Z,14.21
2022-12-12T02:42:26.440Z,14.31
2022-12-12T02:45:07.657Z,14.48
2022-12-12T02:47:42.936Z,14.60
2022-12-12T02:50:15.304Z,14.63
2022-12-12T02:52:47.620Z,14.67
2022-12-12T02:55:15.487Z,14.74
2022-12-12T02:57:42.451Z,14.78
2022-12-12T03:00:15.942Z,14.85
2022-12-12T03:03:17.692Z,14.94
2022-12-12T03:06:14.689Z,15.00
2022-12-12T03:09:10.778Z,15.02
2022-12-12T03:11:57.741Z,15.06
2022-12-12T03:14:38.968Z,15.15
2022-12-12T03:17:15.491Z,15.23
2022-12-12T03:19:48.883Z,15.23
2022-12-12T03:22:30.483Z,15.30
2022-12-12T03:25:16.306Z,15.27
2022-12-12T03:27:57.720Z,15.20
2022-12-12T03:30:24.944Z,15.32
2022-12-12T03:33:04.074Z,15.38
2022-12-12T03:35:37.692Z,15.39
2022-12-12T03:38:14.280Z,15.41
2022-12-12T03:40:58.412Z,15.38
2022-12-12T03:43:38.070Z,15.48
2022-12-12T03:46:25.765Z,15.44
2022-12-12T03:49:05.535Z,15.40
2022-12-12T03:51:39.886Z,15.54
2022-12-12T03:54:19.264Z,15.60
2022-12-12T03:57:21.087Z,15.61
2022-12-12T03:59:55.509Z,15.62
2022-12-12T04:02:25.037Z,15.68
2022-12-12T04:05:02.191Z,15.69
2022-12-12T04:07:41.760Z,15.70
2022-12-12T04:10:28.872Z,15.81
2022-12-12T04:13:32.251Z,15.77
2022-12-12T04:16:15.642Z,15.79
2022-12-12T04:19:37.336Z,15.83
2022-12-12T04:22:27.419Z,15.78
2022-12-12T04:25:12.929Z,15.78
2022-12-12T04:27:46.019Z,15.81
2022-12-12T04:30:15.572Z,15.79
2022-12-12T04:32:51.335Z,15.76
2022-12-12T04:35:24.052Z,15.81
2022-12-12T04:38:01.049Z,15.78
2022-12-12T04:40:31.760Z,15.79
2022-12-12T04:43:03.714Z,15.73
2022-12-12T04:45:39.423Z,15.71
2022-12-12T04:48:09.447Z,15.74
2022-12-12T04:50:37.471Z,15.70
2022-12-12T04:53:13.414Z,15.77
2022-12-12T04:55:48.319Z,15.79
2022-12-12T04:58:15.674Z,15.79
2022-12-12T05:00:56.020Z,15.75
2022-12-12T05:03:33.823Z,15.71
2022-12-12T05:06:05.880Z,15.78
2022-12-12T05:08:45.293Z,15.79
2022-12-12T05:11:12.770Z,15.80
2022-12-12T05:13:42.870Z,15.83
2022-12-12T05:16:29.788Z,15.59
2022-12-12T05:18:56.632Z,15.77
2022-12-12T05:21:23.327Z,15.76
2022-12-12T05:23:50.426Z,15.83
2022-12-12T05:26:26.962Z,15.78
2022-12-12T05:28:54.444Z,15.87
2022-12-12T05:31:21.876Z,15.85
2022-12-12T05:33:49.178Z,15.94
2022-12-12T05:36:16.699Z,15.98
2022-12-12T05:38:43.421Z,15.94
2022-12-12T05:41:10.479Z,15.95
2022-12-12T05:43:39.121Z,15.82
2022-12-12T05:46:06.776Z,15.86
2022-12-12T05:48:34.185Z,15.82
2022-12-12T05:51:02.858Z,15.85
2022-12-12T05:53:30.797Z,15.76
2022-12-12T05:55:57.611Z,15.82
2022-12-12T05:58:24.490Z,15.80
2022-12-12T06:00:52.189Z,15.79
2022-12-12T06:03:20.756Z,15.79
2022-12-12T06:05:47.522Z,15.83
2022-12-12T06:08:14.704Z,15.87
2022-12-12T06:10:42.819Z,15.81
2022-12-12T06:13:09.701Z,15.83
2022-12-12T06:15:40.388Z,15.86
2022-12-12T06:18:08.324Z,15.89
2022-12-12T06:20:36.067Z,15.79
2022-12-12T06:23:02.770Z,15.81
2022-12-12T06:25:29.756Z,15.87
2022-12-12T06:27:57.949Z,15.88
2022-12-12T06:30:26.173Z,15.82
2022-12-12T06:32:52.885Z,15.79
2022-12-12T06:35:19.718Z,15.86
2022-12-12T06:37:48.636Z,15.90
2022-12-12T06:40:15.391Z,15.87
2022-12-12T06:42:47.889Z,15.96
2022-12-12T06:45:16.048Z,15.94
2022-12-12T06:47:42.950Z,15.97
2022-12-12T06:50:09.915Z,16.01
2022-12-12T06:52:36.691Z,15.94
2022-12-12T06:55:04.164Z,15.96
2022-12-12T06:57:31.172Z,15.97
2022-12-12T06:59:58.019Z,15.95
2022-12-12T07:02:29.628Z,15.97
2022-12-12T07:04:58.017Z,15.95
2022-12-12T07:07:24.810Z,15.92
2022-12-12T07:09:51.575Z,15.99
2022-12-12T07:12:18.368Z,15.94
2022-12-12T07:14:45.056Z,15.99
2022-12-12T07:17:11.823Z,15.95
2022-12-12T07:19:38.639Z,15.97
2022-12-12T07:22:09.658Z,16.02
2022-12-12T07:24:36.829Z,15.98
2022-12-12T07:27:03.865Z,16.00
2022-12-12T07:29:30.756Z,15.98
2022-12-12T07:31:57.700Z,15.96
2022-12-12T07:34:24.587Z,16.02
2022-12-12T07:36:51.585Z,15.92
2022-12-12T07:39:20.955Z,15.87
2022-12-12T07:41:48.390Z,15.91
2022-12-12T07:44:16.668Z,15.94
2022-12-12T07:46:43.462Z,15.96
2022-12-12T07:49:10.214Z,15.95
2022-12-12T07:51:40.962Z,15.93
2022-12-12T07:54:10.916Z,15.99
2022-12-12T07:56:37.637Z,15.93
2022-12-12T07:59:04.479Z,15.97
2022-12-12T08:01:31.301Z,16.02
2022-12-12T08:03:58.965Z,16.03
2022-12-12T08:06:26.117Z,16.00
2022-12-12T08:08:53.796Z,16.02
2022-12-12T08:11:23.402Z,16.06
2022-12-12T08:13:51.047Z,16.07
2022-12-12T08:16:26.896Z,16.11
2022-12-12T08:18:55.537Z,16.01
2022-12-12T08:21:26.191Z,16.01
2022-12-12T08:23:58.377Z,16.09
2022-12-12T08:26:26.363Z,16.11
2022-12-12T08:28:53.457Z,16.11
2022-12-12T08:31:21.455Z,16.14
2022-12-12T08:33:50.860Z,16.16
2022-12-12T08:36:21.295Z,16.16
2022-12-12T08:38:48.808Z,16.18
2022-12-12T08:41:16.448Z,16.20
2022-12-12T08:43:44.290Z,16.20
2022-12-12T08:46:17.486Z,16.18
2022-12-12T08:48:46.036Z,16.20
2022-12-12T08:51:13.635Z,16.12
2022-12-12T08:53:40.468Z,16.06
2022-12-12T08:56:09.260Z,16.16
2022-12-12T08:58:36.040Z,16.18
2022-12-12T09:01:03.837Z,16.21
2022-12-12T09:03:30.662Z,16.23
2022-12-12T09:05:57.456Z,16.23
2022-12-12T09:08:24.674Z,16.26
2022-12-12T09:10:51.681Z,16.26
2022-12-12T09:13:18.494Z,16.23
2022-12-12T09:15:45.517Z,16.30
2022-12-12T09:18:12.586Z,16.31
2022-12-12T09:20:39.703Z,16.32
2022-12-12T09:23:06.498Z,16.32
2022-12-12T09:25:33.488Z,16.33
2022-12-12T09:28:00.235Z,16.33
2022-12-12T09:30:26.954Z,16.32
2022-12-12T09:32:53.899Z,16.30
2022-12-12T09:35:20.654Z,16.34
2022-12-12T09:37:47.447Z,16.37
2022-12-12T09:40:28.139Z,16.35
2022-12-12T09:42:55.609Z,16.37
2022-12-12T09:45:22.899Z,16.41
2022-12-12T09:48:00.720Z,16.36
2022-12-12T09:50:32.616Z,16.41
2022-12-12T09:53:03.395Z,16.42
2022-12-12T09:55:39.065Z,16.41
2022-12-12T09:58:17.912Z,16.41
2022-12-12T10:00:52.843Z,16.35
2022-12-12T10:03:42.490Z,16.40
2022-12-12T10:06:36.535Z,16.43
2022-12-12T10:09:13.318Z,16.40
2022-12-12T10:11:50.885Z,16.42
2022-12-12T10:14:42.479Z,16.38
2022-12-12T10:17:16.523Z,16.37
2022-12-12T10:20:06.420Z,16.42
2022-12-12T10:22:33.191Z,16.50
2022-12-12T10:25:25.724Z,16.42
2022-12-12T10:28:00.154Z,16.48
2022-12-12T10:30:32.649Z,16.48
2022-12-12T10:33:14.102Z,16.50
2022-12-12T10:36:06.433Z,16.54
2022-12-12T10:38:45.149Z,16.53
2022-12-12T10:41:23.053Z,16.54
2022-12-12T10:43:59.892Z,16.52
2022-12-12T10:47:02.195Z,16.46
2022-12-12T10:49:29.845Z,16.52
2022-12-12T10:52:00.072Z,16.57
2022-12-12T10:54:28.691Z,16.58
2022-12-12T10:57:16.540Z,16.50
2022-12-12T10:59:52.847Z,16.60
2022-12-12T11:02:34.868Z,16.62
2022-12-12T11:05:06.439Z,16.58
2022-12-12T11:07:45.147Z,16.59
2022-12-12T11:10:34.854Z,16.61
2022-12-12T11:13:21.900Z,16.56
2022-12-12T11:16:17.371Z,16.52
2022-12-12T11:19:01.893Z,16.59
2022-12-12T11:21:31.912Z,16.65
2022-12-12T11:23:59.974Z,16.43
2022-12-12T11:26:29.221Z,16.58
2022-12-12T11:29:02.753Z,16.66
2022-12-12T11:31:35.208Z,16.67
2022-12-12T11:34:06.524Z,16.68
2022-12-12T11:36:39.118Z,16.71
2022-12-12T11:39:22.301Z,16.71
2022-12-12T11:41:58.355Z,16.72
2022-12-12T11:44:28.392Z,16.73
2022-12-12T11:46:54.959Z,16.52
2022-12-12T11:49:21.687Z,16.72
2022-12-12T11:51:49.356Z,16.80
2022-12-12T11:54:21.888Z,16.86
2022-12-12T11:57:06.300Z,16.83
2022-12-12T11:59:48.852Z,16.87
2022-12-12T12:03:03.906Z,16.82
2022-12-12T12:05:55.497Z,16.85
2022-12-12T12:08:48.573Z,16.89
2022-12-12T12:11:43.151Z,16.91
2022-12-12T12:14:09.933Z,16.95
2022-12-12T12:17:00.823Z,16.97
2022-12-12T12:19:51.882Z,17.01
2022-12-12T12:23:07.763Z,16.94
2022-12-12T12:25:43.501Z,17.00
2022-12-12T12:28:36.874Z,16.92
2022-12-12T12:31:33.197Z,16.97
2022-12-12T12:34:21.094Z,17.03
2022-12-12T12:37:09.525Z,17.18
2022-12-12T12:40:02.234Z,17.17
2022-12-12T12:42:53.503Z,17.15
2022-12-12T12:45:25.978Z,17.10
2022-12-12T12:48:03.466Z,17.11
2022-12-12T12:50:43.254Z,17.08
2022-12-12T12:53:21.963Z,17.05
2022-12-12T12:55:53.190Z,17.07
2022-12-12T12:58:28.597Z,17.09
2022-12-12T13:01:21.236Z,17.08
2022-12-12T13:04:08.348Z,17.07
2022-12-12T13:07:04.326Z,17.07
2022-12-12T13:09:57.727Z,16.98
2022-12-12T13:12:38.668Z,16.99
2022-12-12T13:15:14.738Z,17.00
2022-12-12T13:18:15.432Z,16.92
2022-12-12T13:20:52.657Z,16.99
2022-12-12T13:23:37.360Z,17.00
2022-12-12T13:26:13.014Z,17.05
2022-12-12T13:28:45.938Z,17.08
2022-12-12T13:31:39.492Z,17.05
2022-12-12T13:34:08.648Z,17.10
2022-12-12T13:36:39.599Z,17.17
2022-12-12T13:39:09.229Z,17.21
2022-12-12T13:42:21.248Z,17.17
2022-12-12T13:44:49.592Z,17.26
2022-12-12T13:47:22.272Z,17.22
2022-12-12T13:50:19.235Z,17.12
2022-12-12T13:53:08.653Z,17.26
2022-12-12T13:55:36.635Z,17.26
2022-12-12T13:58:18.155Z,17.22
2022-12-12T14:00:45.250Z,17.23
2022-12-12T14:03:12.017Z,17.21
2022-12-12T14:05:44.730Z,17.14
2022-12-12T14:08:11.667Z,17.17
2022-12-12T14:10:53.710Z,17.09
2022-12-12T14:13:23.867Z,17.10
2022-12-12T14:16:04.825Z,17.11
2022-12-12T14:18:49.680Z,17.11
2022-12-12T14:21:18.928Z,17.13
2022-12-12T14:23:51.073Z,17.10
2022-12-12T14:26:29.775Z,17.13
2022-12-12T14:29:18.390Z,17.10
2022-12-12T14:32:13.485Z,17.03
2022-12-12T14:35:13.963Z,16.98
2022-12-12T14:38:00.067Z,16.93
2022-12-12T14:40:38.008Z,16.99
2022-12-12T14:43:21.570Z,16.97
2022-12-12T14:45:55.770Z,16.97
2022-12-12T14:48:35.050Z,17.01
2022-12-12T14:51:13.156Z,17.01
2022-12-12T14:53:52.292Z,16.95
2022-12-12T14:56:21.052Z,16.95
2022-12-12T14:58:50.860Z,16.99
2022-12-12T15:01:32.608Z,16.86
2022-12-12T15:04:02.119Z,16.98
2022-12-12T15:06:43.387Z,16.99
2022-12-12T15:09:20.332Z,16.97
2022-12-12T15:11:48.623Z,17.03
2022-12-12T15:14:23.237Z,17.05
2022-12-12T15:16:53.016Z,17.08
2022-12-12T15:19:25.740Z,17.09
2022-12-12T15:21:52.734Z,17.15
2022-12-12T15:24:22.982Z,17.26
2022-12-12T15:26:52.204Z,17.32
2022-12-12T15:29:23.320Z,17.27
2022-12-12T15:31:57.554Z,17.31
2022-12-12T15:34:41.247Z,17.27
2022-12-12T15:37:29.020Z,17.19
2022-12-12T15:40:10.875Z,17.25
2022-12-12T15:42:40.655Z,17.25
2022-12-12T15:45:15.544Z,17.23
2022-12-12T15:47:42.566Z,17.28
2022-12-12T15:50:25.280Z,17.18
2022-12-12T15:53:05.878Z,17.20
2022-12-12T15:55:33.890Z,17.20
2022-12-12T15:58:01.113Z,17.17
2022-12-12T16:00:32.709Z,17.22
2022-12-12T16:03:00.775Z,17.25
2022-12-12T16:05:34.192Z,17.26
2022-12-12T16:08:33.687Z,17.17
2022-12-12T16:11:03.000Z,17.19
2022-12-12T16:13:40.803Z,17.21
2022-12-12T16:16:56.203Z,17.10
2022-12-12T16:19:26.453Z,17.18
2022-12-12T16:21:54.238Z,17.18
2022-12-12T16:24:25.397Z,17.16
2022-12-12T16:26:56.866Z,17.18
2022-12-12T16:29:23.560Z,17.13
2022-12-12T16:31:50.411Z,17.18
2022-12-12T16:34:18.029Z,17.16
2022-12-12T16:36:44.738Z,17.13
2022-12-12T16:39:13.056Z,17.11
2022-12-12T16:41:40.257Z,17.00
2022-12-12T16:44:06.955Z,16.96
2022-12-12T16:46:33.744Z,16.86
2022-12-12T16:49:04.847Z,16.85
2022-12-12T16:51:34.279Z,16.79
2022-12-12T16:54:01.380Z,16.70
2022-12-12T16:56:28.307Z,16.66
2022-12-12T16:58:56.338Z,16.74
2022-12-12T17:01:23.150Z,16.74
2022-12-12T17:03:50.149Z,16.79
2022-12-12T17:06:17.084Z,16.87
2022-12-12T17:08:43.838Z,16.83
2022-12-12T17:11:11.546Z,16.85
2022-12-12T17:13:43.129Z,16.95
2022-12-12T17:16:09.970Z,16.99
2022-12-12T17:18:36.990Z,16.96
2022-12-12T17:21:03.903Z,16.96
2022-12-12T17:23:30.673Z,17.00
2022-12-12T17:26:03.576Z,16.97
2022-12-12T17:28:34.123Z,16.97
2022-12-12T17:31:01.407Z,17.00
2022-12-12T17:33:28.455Z,17.00
2022-12-12T17:36:01.177Z,17.00
2022-12-12T17:38:28.217Z,16.99
2022-12-12T17:40:56.860Z,17.00
2022-12-12T17:43:26.558Z,17.03
2022-12-12T17:45:58.508Z,16.99
2022-12-12T17:48:28.430Z,16.97
2022-12-12T17:51:03.948Z,16.95
2022-12-12T17:53:32.565Z,16.99
2022-12-12T17:56:01.175Z,16.99
2022-12-12T17:58:39.300Z,16.99
2022-12-12T18:01:16.769Z,16.85
2022-12-12T18:03:44.316Z,16.94
2022-12-12T18:06:11.923Z,16.91
2022-12-12T18:08:40.767Z,16.90
2022-12-12T18:11:09.501Z,16.89
2022-12-12T18:13:36.603Z,16.87
2022-12-12T18:16:03.465Z,16.87
2022-12-12T18:18:30.311Z,16.85
2022-12-12T18:21:02.618Z,16.78
2022-12-12T18:23:29.305Z,16.79
2022-12-12T18:25:56.449Z,16.79
2022-12-12T18:28:23.128Z,16.74
2022-12-12T18:30:50.400Z,16.77
2022-12-12T18:33:17.361Z,16.75
2022-12-12T18:35:44.164Z,16.69
2022-12-12T18:38:10.855Z,16.77
2022-12-12T18:40:39.435Z,16.76
2022-12-12T18:43:06.295Z,16.71
2022-12-12T18:45:36.859Z,16.74
2022-12-12T18:48:03.882Z,16.68
2022-12-12T18:50:30.569Z,16.71
2022-12-12T18:52:57.263Z,16.72
2022-12-12T18:55:26.289Z,16.70
2022-12-12T18:57:53.053Z,16.68
2022-12-12T19:00:20.519Z,16.69
2022-12-12T19:02:47.347Z,16.65
2022-12-12T19:05:14.525Z,16.66
2022-12-12T19:07:42.176Z,16.67
2022-12-12T19:10:09.218Z,16.68
2022-12-12T19:12:36.480Z,16.65
2022-12-12T19:15:18.771Z,16.66
2022-12-12T19:17:45.660Z,16.68
2022-12-12T19:20:13.174Z,16.69
2022-12-12T19:22:45.500Z,16.71
2022-12-12T19:25:14.411Z,16.67
2022-12-12T19:27:41.265Z,16.71
2022-12-12T19:30:08.542Z,16.72
2022-12-12T19:32:35.460Z,16.68
2022-12-12T19:35:02.406Z,16.72
2022-12-12T19:37:29.263Z,16.70
2022-12-12T19:39:57.141Z,16.66
2022-12-12T19:42:23.832Z,16.69
2022-12-12T19:44:50.537Z,16.69
2022-12-12T19:47:18.991Z,16.71
2022-12-12T19:49:45.728Z,16.66
2022-12-12T19:52:14.420Z,16.74
2022-12-12T19:54:41.516Z,16.73
2022-12-12T19:57:08.214Z,16.75
2022-12-12T19:59:35.092Z,16.73
2022-12-12T20:02:01.931Z,16.74
2022-12-12T20:04:30.355Z,16.77
2022-12-12T20:06:57.433Z,16.81
2022-12-12T20:09:29.602Z,16.78
2022-12-12T20:11:59.458Z,16.81
2022-12-12T20:14:32.851Z,16.78
2022-12-12T20:17:00.166Z,16.79
2022-12-12T20:19:27.593Z,16.80
2022-12-12T20:22:03.544Z,16.83
2022-12-12T20:24:33.528Z,16.83
2022-12-12T20:27:03.295Z,16.83
2022-12-12T20:29:30.729Z,16.83
2022-12-12T20:31:59.937Z,16.77
2022-12-12T20:34:28.074Z,16.83
2022-12-12T20:36:58.869Z,16.75
2022-12-12T20:39:26.230Z,16.85
2022-12-12T20:41:54.169Z,16.87
2022-12-12T20:44:22.663Z,16.89
2022-12-12T20:46:49.443Z,16.85
2022-12-12T20:49:19.351Z,16.90
2022-12-12T20:51:55.281Z,16.88
2022-12-12T20:54:24.617Z,16.91
2022-12-12T20:56:52.609Z,16.94
2022-12-12T20:59:19.538Z,16.94
2022-12-12T21:01:47.760Z,16.94
2022-12-12T21:04:15.382Z,16.92
2022-12-12T21:06:44.755Z,16.95
2022-12-12T21:09:15.092Z,16.93
2022-12-12T21:11:44.635Z,16.96
2022-12-12T21:14:12.362Z,16.99
2022-12-12T21:16:40.040Z,17.00
2022-12-12T21:19:11.765Z,16.99
2022-12-12T21:21:41.330Z,16.98
2022-12-12T21:24:08.379Z,17.00
2022-12-12T21:26:35.294Z,16.97
2022-12-12T21:29:02.631Z,17.02
2022-12-12T21:31:32.031Z,17.03
2022-12-12T21:33:59.823Z,17.00
2022-12-12T21:36:28.219Z,17.03
2022-12-12T21:38:57.092Z,17.03
2022-12-12T21:41:25.461Z,17.04
2022-12-12T21:43:52.816Z,17.03
2022-12-12T21:46:26.182Z,17.01
2022-12-12T21:49:12.516Z,17.02
2022-12-12T21:51:40.507Z,17.05
2022-12-12T21:54:08.400Z,17.07
2022-12-12T21:56:35.628Z,17.09
2022-12-12T21:59:03.494Z,17.06
2022-12-12T22:01:32.415Z,17.12
2022-12-12T22:04:00.211Z,17.12
2022-12-12T22:06:29.700Z,17.16
2022-12-12T22:08:57.825Z,17.15
2022-12-12T22:11:40.212Z,17.15
2022-12-12T22:14:11.916Z,17.12
2022-12-12T22:16:38.898Z,17.02
2022-12-12T22:19:09.888Z,17.09
2022-12-12T22:21:37.087Z,17.07
2022-12-12T22:24:04.069Z,17.01
2022-12-12T22:26:42.205Z,16.96
2022-12-12T22:29:12.333Z,17.01
2022-12-12T22:31:40.844Z,16.97
2022-12-12T22:34:14.672Z,16.96
2022-12-12T22:36:42.033Z,16.95
2022-12-12T22:39:15.378Z,17.01
2022-12-12T22:41:42.134Z,17.00
2022-12-12T22:44:13.231Z,17.02
2022-12-12T22:46:43.863Z,16.97
2022-12-12T22:49:14.608Z,16.98
2022-12-12T22:51:42.960Z,16.94
2022-12-12T22:54:09.784Z,16.94
2022-12-12T22:56:38.270Z,16.85
2022-12-12T22:59:06.161Z,16.88
2022-12-12T23:01:33.617Z,16.83
2022-12-12T23:04:00.521Z,16.78
2022-12-12T23:06:35.460Z,16.74
2022-12-12T23:09:06.247Z,16.78
2022-12-12T23:11:34.339Z,16.80
2022-12-12T23:14:04.661Z,16.76
2022-12-12T23:16:31.746Z,16.79
2022-12-12T23:18:59.178Z,16.78
2022-12-12T23:21:27.172Z,16.85
2022-12-12T23:23:55.441Z,16.86
2022-12-12T23:26:25.220Z,16.88
2022-12-12T23:28:52.365Z,16.88
2022-12-12T23:31:22.357Z,16.89
2022-12-12T23:33:51.878Z,16.65
2022-12-12T23:36:18.763Z,16.85
2022-12-12T23:38:45.592Z,16.95
2022-12-12T23:41:14.480Z,16.95
2022-12-12T23:43:42.071Z,16.98
2022-12-12T23:46:28.183Z,17.00
2022-12-12T23:49:07.440Z,17.02
2022-12-12T23:51:39.779Z,17.08
2022-12-12T23:54:10.437Z,17.07
2022-12-12T23:56:38.162Z,17.11
2022-12-12T23:59:04.908Z,17.14
